Houston, TX (77061)

5:07 PM CDT on August 04, 2015 (GMT -0500)
South Houston | | Change Station
CLOSE
Current Station
Personal Weather Station
Location: South Houston, TX
Elevation: 52 ft
Nearby Weather Stations

Elev 52 ft 29.67 °N, 95.22 °W | Updated 0 second ago

Overcast
Overcast
96.6 °F
Feels Like 92 °F
N
7.6
Wind Variable Wind from SE
Gusts 12.1 mph

Today
High -- | Low -- °F
--% Chance of Precip.
Yesterday
High -- | Low -- °F
Precip. -- in
6:42 AM 8:11 PM
Waning Gibbous, 74% visible
Pressure 29.94 in
Visibility 10.0 miles
Clouds Few 4600 ft
Scattered Clouds 9500 ft
Scattered Clouds 25000 ft
Heat Index 92 °F
Dew Point 42 °F
Humidity 15%
Rainfall 0.00 in
Snow Depth Not available.
UV 0.0 out of 12
Pollen 3.30 out of 12
Air Quality Not available.
Flu Activity Not available.
METAR KHOU 042153Z VRB05KT 10SM -RA FEW046 SCT095 SCT250 34/23 A2993 RMK AO2 SLP138 RAB38 CB DSNT N NW P0000 T03390228

More Conditions Fewer Conditions

Pressure 29.94 in
Visibility 10.0 miles
Clouds Few 4600 ft
Scattered Clouds 9500 ft
Scattered Clouds 25000 ft
Heat Index 92 °F
Dew Point 42 °F
Humidity 15%
Rainfall 0.00 in
Snow Depth Not available.
UV 0.0 out of 12
Pollen 3.30 out of 12
Air Quality Not available.
Flu Activity Not available.
METAR KHOU 042153Z VRB05KT 10SM -RA FEW046 SCT095 SCT250 34/23 A2993 RMK AO2 SLP138 RAB38 CB DSNT N NW P0000 T03390228

More Conditions Fewer Conditions

10-Day Weather Forecast

×

Almanac

Astronomy

Aug. 04, 2015 Rise Set
Actual Time
Civil Twilight
Nautical Twilight
Astronomical Twilight
Moon
Length of Visible Light
Length of Day
Tomorrow will be .
, % of the Moon is Illuminated

Today's Extremes

State Highs State Lows

Community

WunderPhotos

Upload Photos

1,844,001 photos uploaded!

WunderBlogs® & News

Nearby

Air Quality

  Air Quality AQ Index Pollutant
Not available.

Snow Depth

Station Depth Elevation

Earthquake Activity

City Distance Mag. Time & Date
Minimum magnitude displayed is 2.5.

Coastal Water Temperatures

Place Temperature

Stations

Nearby Weather Stations

Station Location Temp. Windchill Dew Point Humidity Wind Precip. Elev Updated Type